Main page
METAR-TAF:

METAR-TAF

Airports :

Blue Canyon–Nyack Airport

Emigrant Gap, California, United States

latitude: 39-16-34N, longitude: 120-42-29W, elevation: 5281 ft

Current weather observation

The report was made 16 hours and 2 minutes ago, at 22:09 UTC
Wind 10 mph from the South with gusts up to 23 mph, varying between South/Southeast and South/Southwest
Temperature 39°F
Humidity 93%
Pressure 29.95 in. Hg
Visibility: 1.25 miles
Broken clouds at a height of 400 ft
Overcast at a height of 800 ft
mist

METAR: KBLU 262209Z AUTO 19009G20KT 150V210 1 1/4SM BR BKN004 OVC008 04/03 A2995 RMK AO2 VIS 1/2V5 RAE2153 P0000 T00390028

Time: 06:11 (14:11 UTC)


TAF: missing

Weather observations and forecasts of more than 4000 airports (METAR and TAF reports).

The available stations are represented by yellow and red dots on the map.

Hover mouse over dot to see the name of the station.

Then click to see weather observations and forecasts.

To change the map : click on the green buttons with a black cross to zoom in, on the green button with a dash to zoom out, or on the green arrows for adjacent maps.


METAR-TAF: